sensor_id;sensor_type;location;lat;lon;timestamp;P1;durP1;ratioP1;P2;durP2;ratioP2
15679;SDS011;15488;48.114;11.532;2023-05-29T00:01:00;10.30;;;7.20;;
15679;SDS011;15488;48.114;11.532;2023-05-29T00:03:32;11.50;;;7.63;;
15679;SDS011;15488;48.114;11.532;2023-05-29T00:06:02;10.97;;;6.80;;
15679;SDS011;15488;48.114;11.532;2023-05-29T00:08:35;12.27;;;7.17;;
15679;SDS011;15488;48.114;11.532;2023-05-29T00:11:03;10.00;;;6.93;;
15679;SDS011;15488;48.114;11.532;2023-05-29T00:13:34;11.07;;;6.90;;
15679;SDS011;15488;48.114;11.532;2023-05-29T00:16:04;9.97;;;6.40;;
15679;SDS011;15488;48.114;11.532;2023-05-29T00:18:32;8.60;;;6.13;;
15679;SDS011;15488;48.114;11.532;2023-05-29T00:21:00;8.30;;;5.90;;
15679;SDS011;15488;48.114;11.532;2023-05-29T00:23:30;8.07;;;6.30;;
15679;SDS011;15488;48.114;11.532;2023-05-29T00:26:10;8.50;;;6.27;;
15679;SDS011;15488;48.114;11.532;2023-05-29T00:28:38;8.67;;;6.03;;
15679;SDS011;15488;48.114;11.532;2023-05-29T00:31:06;9.33;;;6.23;;
15679;SDS011;15488;48.114;11.532;2023-05-29T00:33:37;7.83;;;6.20;;
15679;SDS011;15488;48.114;11.532;2023-05-29T00:36:07;9.83;;;6.30;;
15679;SDS011;15488;48.114;11.532;2023-05-29T00:38:37;8.10;;;5.70;;
15679;SDS011;15488;48.114;11.532;2023-05-29T00:41:08;9.27;;;6.07;;
15679;SDS011;15488;48.114;11.532;2023-05-29T00:43:43;8.77;;;5.80;;
15679;SDS011;15488;48.114;11.532;2023-05-29T00:46:16;8.33;;;5.90;;
15679;SDS011;15488;48.114;11.532;2023-05-29T00:48:45;8.27;;;5.93;;
15679;SDS011;15488;48.114;11.532;2023-05-29T00:51:16;9.47;;;5.93;;
15679;SDS011;15488;48.114;11.532;2023-05-29T00:53:48;9.03;;;5.90;;
15679;SDS011;15488;48.114;11.532;2023-05-29T00:56:19;9.30;;;5.63;;
15679;SDS011;15488;48.114;11.532;2023-05-29T00:58:46;8.43;;;5.83;;
15679;SDS011;15488;48.114;11.532;2023-05-29T01:01:16;9.97;;;6.17;;
15679;SDS011;15488;48.114;11.532;2023-05-29T01:04:17;7.77;;;5.87;;
15679;SDS011;15488;48.114;11.532;2023-05-29T01:06:46;8.00;;;5.90;;
15679;SDS011;15488;48.114;11.532;2023-05-29T01:09:16;7.53;;;5.80;;
15679;SDS011;15488;48.114;11.532;2023-05-29T01:11:49;8.70;;;5.70;;
15679;SDS011;15488;48.114;11.532;2023-05-29T01:14:29;8.37;;;5.70;;
15679;SDS011;15488;48.114;11.532;2023-05-29T01:17:05;8.77;;;5.77;;
15679;SDS011;15488;48.114;11.532;2023-05-29T01:19:46;7.63;;;5.37;;
15679;SDS011;15488;48.114;11.532;2023-05-29T01:22:40;7.33;;;5.70;;
15679;SDS011;15488;48.114;11.532;2023-05-29T01:25:19;7.90;;;5.87;;
15679;SDS011;15488;48.114;11.532;2023-05-29T01:27:56;8.30;;;6.17;;
15679;SDS011;15488;48.114;11.532;2023-05-29T01:30:27;9.10;;;6.20;;
15679;SDS011;15488;48.114;11.532;2023-05-29T01:32:56;9.13;;;6.10;;
15679;SDS011;15488;48.114;11.532;2023-05-29T01:35:27;8.47;;;5.93;;
15679;SDS011;15488;48.114;11.532;2023-05-29T01:37:55;7.43;;;5.73;;
15679;SDS011;15488;48.114;11.532;2023-05-29T01:40:22;9.00;;;5.90;;
15679;SDS011;15488;48.114;11.532;2023-05-29T01:42:50;8.67;;;5.57;;
15679;SDS011;15488;48.114;11.532;2023-05-29T01:45:19;8.83;;;6.27;;
15679;SDS011;15488;48.114;11.532;2023-05-29T01:47:47;9.60;;;5.80;;
15679;SDS011;15488;48.114;11.532;2023-05-29T01:50:18;7.53;;;5.63;;
15679;SDS011;15488;48.114;11.532;2023-05-29T01:52:48;7.90;;;5.67;;
15679;SDS011;15488;48.114;11.532;2023-05-29T01:55:19;7.97;;;5.40;;
15679;SDS011;15488;48.114;11.532;2023-05-29T01:57:56;9.73;;;5.83;;
15679;SDS011;15488;48.114;11.532;2023-05-29T02:00:42;7.40;;;5.40;;
15679;SDS011;15488;48.114;11.532;2023-05-29T02:03:12;8.53;;;5.43;;
15679;SDS011;15488;48.114;11.532;2023-05-29T02:05:42;8.27;;;5.53;;
15679;SDS011;15488;48.114;11.532;2023-05-29T02:08:20;8.80;;;5.93;;
15679;SDS011;15488;48.114;11.532;2023-05-29T02:10:47;9.50;;;6.00;;
15679;SDS011;15488;48.114;11.532;2023-05-29T02:13:15;8.13;;;5.70;;
15679;SDS011;15488;48.114;11.532;2023-05-29T02:15:49;8.93;;;5.47;;
15679;SDS011;15488;48.114;11.532;2023-05-29T02:18:17;8.30;;;5.40;;
15679;SDS011;15488;48.114;11.532;2023-05-29T02:20:48;7.93;;;5.53;;
15679;SDS011;15488;48.114;11.532;2023-05-29T02:23:18;6.67;;;5.33;;
15679;SDS011;15488;48.114;11.532;2023-05-29T02:25:48;8.63;;;5.60;;
15679;SDS011;15488;48.114;11.532;2023-05-29T02:28:19;7.13;;;5.43;;
15679;SDS011;15488;48.114;11.532;2023-05-29T02:30:48;7.93;;;5.87;;
15679;SDS011;15488;48.114;11.532;2023-05-29T02:33:19;7.53;;;5.57;;
15679;SDS011;15488;48.114;11.532;2023-05-29T02:35:50;6.73;;;5.30;;
15679;SDS011;15488;48.114;11.532;2023-05-29T02:38:20;8.47;;;5.50;;
15679;SDS011;15488;48.114;11.532;2023-05-29T02:40:48;8.50;;;5.83;;
15679;SDS011;15488;48.114;11.532;2023-05-29T02:43:16;9.40;;;5.60;;
15679;SDS011;15488;48.114;11.532;2023-05-29T02:45:43;8.27;;;6.00;;
15679;SDS011;15488;48.114;11.532;2023-05-29T02:48:12;7.20;;;5.40;;
15679;SDS011;15488;48.114;11.532;2023-05-29T02:50:39;8.40;;;5.37;;
15679;SDS011;15488;48.114;11.532;2023-05-29T02:53:07;8.47;;;5.33;;
15679;SDS011;15488;48.114;11.532;2023-05-29T02:55:34;7.47;;;5.37;;
15679;SDS011;15488;48.114;11.532;2023-05-29T02:58:02;8.50;;;5.53;;
15679;SDS011;15488;48.114;11.532;2023-05-29T03:00:29;9.10;;;5.73;;
15679;SDS011;15488;48.114;11.532;2023-05-29T03:02:57;7.27;;;5.50;;
15679;SDS011;15488;48.114;11.532;2023-05-29T03:05:26;8.20;;;5.30;;
15679;SDS011;15488;48.114;11.532;2023-05-29T03:07:54;7.33;;;5.10;;
15679;SDS011;15488;48.114;11.532;2023-05-29T03:10:21;6.87;;;5.13;;
15679;SDS011;15488;48.114;11.532;2023-05-29T03:12:49;6.97;;;5.00;;
15679;SDS011;15488;48.114;11.532;2023-05-29T03:15:16;7.93;;;5.33;;
15679;SDS011;15488;48.114;11.532;2023-05-29T03:17:45;9.10;;;5.30;;
15679;SDS011;15488;48.114;11.532;2023-05-29T03:20:12;6.93;;;5.00;;
15679;SDS011;15488;48.114;11.532;2023-05-29T03:22:42;8.40;;;5.73;;
15679;SDS011;15488;48.114;11.532;2023-05-29T03:25:09;8.40;;;5.87;;
15679;SDS011;15488;48.114;11.532;2023-05-29T03:27:37;6.97;;;5.30;;
15679;SDS011;15488;48.114;11.532;2023-05-29T03:30:05;7.07;;;5.00;;
15679;SDS011;15488;48.114;11.532;2023-05-29T03:32:33;7.97;;;5.37;;
15679;SDS011;15488;48.114;11.532;2023-05-29T03:35:00;6.60;;;5.30;;
15679;SDS011;15488;48.114;11.532;2023-05-29T03:37:28;8.07;;;5.40;;
15679;SDS011;15488;48.114;11.532;2023-05-29T03:39:57;7.13;;;5.40;;
15679;SDS011;15488;48.114;11.532;2023-05-29T03:42:25;6.80;;;4.70;;
15679;SDS011;15488;48.114;11.532;2023-05-29T03:44:52;7.73;;;5.43;;
15679;SDS011;15488;48.114;11.532;2023-05-29T03:47:20;7.47;;;5.27;;
15679;SDS011;15488;48.114;11.532;2023-05-29T03:49:47;7.13;;;4.93;;
15679;SDS011;15488;48.114;11.532;2023-05-29T03:52:15;8.27;;;5.53;;
15679;SDS011;15488;48.114;11.532;2023-05-29T03:54:42;6.70;;;5.13;;
15679;SDS011;15488;48.114;11.532;2023-05-29T03:57:12;7.33;;;5.10;;
15679;SDS011;15488;48.114;11.532;2023-05-29T03:59:39;7.40;;;5.07;;
15679;SDS011;15488;48.114;11.532;2023-05-29T04:02:07;7.90;;;5.37;;
15679;SDS011;15488;48.114;11.532;2023-05-29T04:04:34;7.07;;;5.10;;
15679;SDS011;15488;48.114;11.532;2023-05-29T04:07:02;8.50;;;5.07;;
15679;SDS011;15488;48.114;11.532;2023-05-29T04:09:30;8.93;;;5.17;;
15679;SDS011;15488;48.114;11.532;2023-05-29T04:11:57;7.37;;;5.53;;
15679;SDS011;15488;48.114;11.532;2023-05-29T04:14:28;8.17;;;5.20;;
15679;SDS011;15488;48.114;11.532;2023-05-29T04:16:56;7.47;;;5.33;;
15679;SDS011;15488;48.114;11.532;2023-05-29T04:19:23;9.13;;;5.20;;
15679;SDS011;15488;48.114;11.532;2023-05-29T04:21:50;7.13;;;5.30;;
15679;SDS011;15488;48.114;11.532;2023-05-29T04:24:18;7.77;;;5.33;;
15679;SDS011;15488;48.114;11.532;2023-05-29T04:26:45;8.37;;;5.77;;
15679;SDS011;15488;48.114;11.532;2023-05-29T04:29:13;8.00;;;5.63;;
15679;SDS011;15488;48.114;11.532;2023-05-29T04:31:42;8.40;;;5.40;;
15679;SDS011;15488;48.114;11.532;2023-05-29T04:34:09;8.43;;;5.57;;
15679;SDS011;15488;48.114;11.532;2023-05-29T04:36:37;7.87;;;5.30;;
15679;SDS011;15488;48.114;11.532;2023-05-29T04:39:04;7.80;;;5.43;;
15679;SDS011;15488;48.114;11.532;2023-05-29T04:41:32;8.27;;;5.63;;
15679;SDS011;15488;48.114;11.532;2023-05-29T04:44:00;7.67;;;5.90;;
15679;SDS011;15488;48.114;11.532;2023-05-29T04:46:29;10.37;;;6.07;;
15679;SDS011;15488;48.114;11.532;2023-05-29T04:48:57;8.37;;;5.97;;
15679;SDS011;15488;48.114;11.532;2023-05-29T04:51:28;9.07;;;5.27;;
15679;SDS011;15488;48.114;11.532;2023-05-29T04:53:56;9.57;;;5.40;;
15679;SDS011;15488;48.114;11.532;2023-05-29T04:56:23;8.67;;;5.93;;
15679;SDS011;15488;48.114;11.532;2023-05-29T04:58:51;7.67;;;5.47;;
15679;SDS011;15488;48.114;11.532;2023-05-29T05:01:19;7.40;;;5.60;;
15679;SDS011;15488;48.114;11.532;2023-05-29T05:03:46;9.07;;;6.23;;
15679;SDS011;15488;48.114;11.532;2023-05-29T05:06:15;11.97;;;6.20;;
15679;SDS011;15488;48.114;11.532;2023-05-29T05:08:43;9.13;;;6.13;;
15679;SDS011;15488;48.114;11.532;2023-05-29T05:11:11;7.97;;;6.03;;
15679;SDS011;15488;48.114;11.532;2023-05-29T05:13:38;10.47;;;6.40;;
15679;SDS011;15488;48.114;11.532;2023-05-29T05:16:06;8.40;;;6.00;;
15679;SDS011;15488;48.114;11.532;2023-05-29T05:18:33;7.40;;;5.70;;
15679;SDS011;15488;48.114;11.532;2023-05-29T05:21:01;8.37;;;5.80;;
15679;SDS011;15488;48.114;11.532;2023-05-29T05:23:30;9.77;;;6.03;;
15679;SDS011;15488;48.114;11.532;2023-05-29T05:25:58;8.17;;;5.77;;
15679;SDS011;15488;48.114;11.532;2023-05-29T05:28:26;7.93;;;5.87;;
15679;SDS011;15488;48.114;11.532;2023-05-29T05:30:53;7.27;;;5.87;;
15679;SDS011;15488;48.114;11.532;2023-05-29T05:33:21;8.50;;;5.10;;
15679;SDS011;15488;48.114;11.532;2023-05-29T05:35:48;10.13;;;6.13;;
15679;SDS011;15488;48.114;11.532;2023-05-29T05:38:16;8.50;;;6.13;;
15679;SDS011;15488;48.114;11.532;2023-05-29T05:40:45;7.43;;;5.90;;
15679;SDS011;15488;48.114;11.532;2023-05-29T05:43:12;8.97;;;5.97;;
15679;SDS011;15488;48.114;11.532;2023-05-29T05:45:39;8.30;;;6.07;;
15679;SDS011;15488;48.114;11.532;2023-05-29T05:48:07;10.00;;;6.30;;
15679;SDS011;15488;48.114;11.532;2023-05-29T05:50:35;9.60;;;6.27;;
15679;SDS011;15488;48.114;11.532;2023-05-29T05:53:02;8.27;;;6.00;;
15679;SDS011;15488;48.114;11.532;2023-05-29T05:55:30;11.47;;;6.17;;
15679;SDS011;15488;48.114;11.532;2023-05-29T05:57:59;10.03;;;6.43;;
15679;SDS011;15488;48.114;11.532;2023-05-29T06:00:27;8.97;;;6.07;;
15679;SDS011;15488;48.114;11.532;2023-05-29T06:02:54;8.50;;;5.80;;
15679;SDS011;15488;48.114;11.532;2023-05-29T06:05:22;7.80;;;5.57;;
15679;SDS011;15488;48.114;11.532;2023-05-29T06:07:50;6.40;;;4.80;;
15679;SDS011;15488;48.114;11.532;2023-05-29T06:10:17;7.20;;;5.27;;
15679;SDS011;15488;48.114;11.532;2023-05-29T06:12:45;7.63;;;5.50;;
15679;SDS011;15488;48.114;11.532;2023-05-29T06:15:14;7.00;;;5.30;;
15679;SDS011;15488;48.114;11.532;2023-05-29T06:17:42;6.93;;;5.60;;
15679;SDS011;15488;48.114;11.532;2023-05-29T06:20:10;7.87;;;5.20;;
15679;SDS011;15488;48.114;11.532;2023-05-29T06:22:38;9.17;;;5.87;;
15679;SDS011;15488;48.114;11.532;2023-05-29T06:25:07;7.80;;;5.20;;
15679;SDS011;15488;48.114;11.532;2023-05-29T06:27:40;10.77;;;5.50;;
15679;SDS011;15488;48.114;11.532;2023-05-29T06:30:08;7.77;;;5.07;;
15679;SDS011;15488;48.114;11.532;2023-05-29T06:32:38;7.43;;;5.33;;
15679;SDS011;15488;48.114;11.532;2023-05-29T06:35:05;8.07;;;4.83;;
15679;SDS011;15488;48.114;11.532;2023-05-29T06:37:33;7.53;;;5.13;;
15679;SDS011;15488;48.114;11.532;2023-05-29T06:40:01;6.57;;;4.90;;
15679;SDS011;15488;48.114;11.532;2023-05-29T06:42:30;8.70;;;5.20;;
15679;SDS011;15488;48.114;11.532;2023-05-29T06:44:58;7.53;;;6.03;;
15679;SDS011;15488;48.114;11.532;2023-05-29T06:47:26;9.80;;;6.53;;
15679;SDS011;15488;48.114;11.532;2023-05-29T06:49:54;8.67;;;5.50;;
15679;SDS011;15488;48.114;11.532;2023-05-29T06:52:22;8.07;;;4.97;;
15679;SDS011;15488;48.114;11.532;2023-05-29T06:54:49;7.30;;;4.43;;
15679;SDS011;15488;48.114;11.532;2023-05-29T06:57:19;6.63;;;4.17;;
15679;SDS011;15488;48.114;11.532;2023-05-29T06:59:46;7.17;;;4.30;;
15679;SDS011;15488;48.114;11.532;2023-05-29T07:02:14;6.67;;;4.63;;
15679;SDS011;15488;48.114;11.532;2023-05-29T07:04:41;8.47;;;4.77;;
15679;SDS011;15488;48.114;11.532;2023-05-29T07:07:10;6.03;;;4.33;;
15679;SDS011;15488;48.114;11.532;2023-05-29T07:09:37;6.97;;;4.60;;
15679;SDS011;15488;48.114;11.532;2023-05-29T07:12:05;8.23;;;4.87;;
15679;SDS011;15488;48.114;11.532;2023-05-29T07:14:33;6.67;;;4.70;;
15679;SDS011;15488;48.114;11.532;2023-05-29T07:17:00;7.67;;;4.87;;
15679;SDS011;15488;48.114;11.532;2023-05-29T07:19:28;7.63;;;4.37;;
15679;SDS011;15488;48.114;11.532;2023-05-29T07:21:57;5.90;;;4.30;;
15679;SDS011;15488;48.114;11.532;2023-05-29T07:24:26;7.97;;;5.50;;
15679;SDS011;15488;48.114;11.532;2023-05-29T07:26:54;7.57;;;5.60;;
15679;SDS011;15488;48.114;11.532;2023-05-29T07:29:21;7.83;;;5.80;;
15679;SDS011;15488;48.114;11.532;2023-05-29T07:31:52;8.40;;;5.93;;
15679;SDS011;15488;48.114;11.532;2023-05-29T07:34:21;7.70;;;5.10;;
15679;SDS011;15488;48.114;11.532;2023-05-29T07:36:58;6.83;;;4.80;;
15679;SDS011;15488;48.114;11.532;2023-05-29T07:39:32;6.37;;;4.57;;
15679;SDS011;15488;48.114;11.532;2023-05-29T07:42:02;6.57;;;4.90;;
15679;SDS011;15488;48.114;11.532;2023-05-29T07:44:31;6.70;;;5.30;;
15679;SDS011;15488;48.114;11.532;2023-05-29T07:46:58;6.13;;;4.97;;
15679;SDS011;15488;48.114;11.532;2023-05-29T07:49:26;7.23;;;5.07;;
15679;SDS011;15488;48.114;11.532;2023-05-29T07:51:53;7.33;;;5.00;;
15679;SDS011;15488;48.114;11.532;2023-05-29T07:54:21;8.80;;;5.13;;
15679;SDS011;15488;48.114;11.532;2023-05-29T07:56:49;5.50;;;4.20;;
15679;SDS011;15488;48.114;11.532;2023-05-29T07:59:17;6.33;;;4.30;;
15679;SDS011;15488;48.114;11.532;2023-05-29T08:01:47;5.33;;;4.40;;
15679;SDS011;15488;48.114;11.532;2023-05-29T08:04:17;5.80;;;4.20;;
15679;SDS011;15488;48.114;11.532;2023-05-29T08:07:02;7.20;;;5.07;;
15679;SDS011;15488;48.114;11.532;2023-05-29T08:09:33;7.03;;;4.63;;
15679;SDS011;15488;48.114;11.532;2023-05-29T08:12:02;6.13;;;4.83;;
15679;SDS011;15488;48.114;11.532;2023-05-29T08:14:38;8.33;;;5.73;;
15679;SDS011;15488;48.114;11.532;2023-05-29T08:17:08;7.90;;;6.07;;
15679;SDS011;15488;48.114;11.532;2023-05-29T08:19:35;7.03;;;5.10;;
15679;SDS011;15488;48.114;11.532;2023-05-29T08:22:03;8.07;;;5.60;;
15679;SDS011;15488;48.114;11.532;2023-05-29T08:27:40;5.40;;;4.33;;
15679;SDS011;15488;48.114;11.532;2023-05-29T08:30:08;5.37;;;4.60;;
15679;SDS011;15488;48.114;11.532;2023-05-29T08:32:41;6.03;;;4.53;;
15679;SDS011;15488;48.114;11.532;2023-05-29T08:35:17;5.40;;;4.30;;
15679;SDS011;15488;48.114;11.532;2023-05-29T08:37:45;8.80;;;4.90;;
15679;SDS011;15488;48.114;11.532;2023-05-29T08:40:22;5.67;;;4.20;;
15679;SDS011;15488;48.114;11.532;2023-05-29T08:42:53;5.97;;;4.27;;
15679;SDS011;15488;48.114;11.532;2023-05-29T08:45:25;7.60;;;4.93;;
15679;SDS011;15488;48.114;11.532;2023-05-29T08:47:55;6.33;;;4.70;;
15679;SDS011;15488;48.114;11.532;2023-05-29T08:50:26;6.60;;;4.90;;
15679;SDS011;15488;48.114;11.532;2023-05-29T08:52:55;6.73;;;4.50;;
15679;SDS011;15488;48.114;11.532;2023-05-29T08:55:24;9.83;;;4.83;;
15679;SDS011;15488;48.114;11.532;2023-05-29T08:57:53;5.93;;;4.60;;
15679;SDS011;15488;48.114;11.532;2023-05-29T09:00:21;8.03;;;5.30;;
15679;SDS011;15488;48.114;11.532;2023-05-29T09:02:53;7.33;;;4.80;;
15679;SDS011;15488;48.114;11.532;2023-05-29T09:05:21;6.23;;;4.87;;
15679;SDS011;15488;48.114;11.532;2023-05-29T09:07:48;7.17;;;4.80;;
15679;SDS011;15488;48.114;11.532;2023-05-29T09:10:16;6.33;;;4.63;;
15679;SDS011;15488;48.114;11.532;2023-05-29T09:12:44;7.93;;;5.07;;
15679;SDS011;15488;48.114;11.532;2023-05-29T09:15:18;6.53;;;4.37;;
15679;SDS011;15488;48.114;11.532;2023-05-29T09:17:49;5.77;;;4.60;;
15679;SDS011;15488;48.114;11.532;2023-05-29T09:20:18;4.73;;;4.20;;
15679;SDS011;15488;48.114;11.532;2023-05-29T09:22:54;7.83;;;5.63;;
15679;SDS011;15488;48.114;11.532;2023-05-29T09:25:23;9.67;;;5.80;;
15679;SDS011;15488;48.114;11.532;2023-05-29T09:27:53;7.67;;;5.50;;
15679;SDS011;15488;48.114;11.532;2023-05-29T09:30:34;7.03;;;5.53;;
15679;SDS011;15488;48.114;11.532;2023-05-29T09:33:03;7.30;;;5.60;;
15679;SDS011;15488;48.114;11.532;2023-05-29T09:35:35;7.20;;;5.23;;
15679;SDS011;15488;48.114;11.532;2023-05-29T09:38:05;22.67;;;5.30;;
15679;SDS011;15488;48.114;11.532;2023-05-29T09:40:33;7.17;;;4.50;;
15679;SDS011;15488;48.114;11.532;2023-05-29T09:43:02;6.47;;;4.67;;
15679;SDS011;15488;48.114;11.532;2023-05-29T09:45:33;8.10;;;5.83;;
15679;SDS011;15488;48.114;11.532;2023-05-29T09:48:05;7.57;;;5.57;;
15679;SDS011;15488;48.114;11.532;2023-05-29T09:50:34;5.83;;;4.60;;
15679;SDS011;15488;48.114;11.532;2023-05-29T09:53:01;4.63;;;3.83;;
15679;SDS011;15488;48.114;11.532;2023-05-29T09:55:29;6.47;;;4.43;;
15679;SDS011;15488;48.114;11.532;2023-05-29T09:57:58;5.17;;;4.07;;
15679;SDS011;15488;48.114;11.532;2023-05-29T10:00:27;4.63;;;3.90;;
15679;SDS011;15488;48.114;11.532;2023-05-29T10:02:57;7.40;;;4.57;;
15679;SDS011;15488;48.114;11.532;2023-05-29T10:05:24;5.60;;;4.40;;
15679;SDS011;15488;48.114;11.532;2023-05-29T10:07:53;6.70;;;4.40;;
15679;SDS011;15488;48.114;11.532;2023-05-29T10:10:22;5.87;;;4.60;;
15679;SDS011;15488;48.114;11.532;2023-05-29T10:12:52;6.43;;;4.30;;
15679;SDS011;15488;48.114;11.532;2023-05-29T10:15:22;6.23;;;4.70;;
15679;SDS011;15488;48.114;11.532;2023-05-29T10:17:59;7.13;;;5.07;;
15679;SDS011;15488;48.114;11.532;2023-05-29T10:20:29;5.03;;;3.87;;
15679;SDS011;15488;48.114;11.532;2023-05-29T10:22:59;6.37;;;4.03;;
15679;SDS011;15488;48.114;11.532;2023-05-29T10:25:29;5.17;;;3.83;;
15679;SDS011;15488;48.114;11.532;2023-05-29T10:27:58;5.80;;;4.07;;
15679;SDS011;15488;48.114;11.532;2023-05-29T10:30:28;5.77;;;4.37;;
15679;SDS011;15488;48.114;11.532;2023-05-29T10:33:08;6.07;;;3.97;;
15679;SDS011;15488;48.114;11.532;2023-05-29T10:36:03;4.53;;;4.13;;
15679;SDS011;15488;48.114;11.532;2023-05-29T10:38:36;5.77;;;4.13;;
15679;SDS011;15488;48.114;11.532;2023-05-29T10:43:57;5.80;;;4.57;;
15679;SDS011;15488;48.114;11.532;2023-05-29T10:49:35;5.07;;;3.70;;
15679;SDS011;15488;48.114;11.532;2023-05-29T10:52:03;6.03;;;4.67;;
15679;SDS011;15488;48.114;11.532;2023-05-29T10:54:39;4.27;;;3.87;;
15679;SDS011;15488;48.114;11.532;2023-05-29T10:57:17;5.63;;;3.77;;
15679;SDS011;15488;48.114;11.532;2023-05-29T10:59:46;6.33;;;3.63;;
15679;SDS011;15488;48.114;11.532;2023-05-29T11:02:18;5.63;;;3.97;;
15679;SDS011;15488;48.114;11.532;2023-05-29T11:07:50;4.13;;;3.60;;
15679;SDS011;15488;48.114;11.532;2023-05-29T11:10:41;4.27;;;3.57;;
15679;SDS011;15488;48.114;11.532;2023-05-29T11:13:09;4.43;;;3.53;;
15679;SDS011;15488;48.114;11.532;2023-05-29T11:15:48;5.50;;;3.90;;
15679;SDS011;15488;48.114;11.532;2023-05-29T11:18:29;5.72;;;3.78;;
15679;SDS011;15488;48.114;11.532;2023-05-29T11:21:00;4.30;;;3.73;;
15679;SDS011;15488;48.114;11.532;2023-05-29T11:23:31;4.38;;;3.58;;
15679;SDS011;15488;48.114;11.532;2023-05-29T11:25:59;5.30;;;3.60;;
15679;SDS011;15488;48.114;11.532;2023-05-29T11:28:27;4.95;;;3.95;;
15679;SDS011;15488;48.114;11.532;2023-05-29T11:30:54;4.97;;;3.80;;
15679;SDS011;15488;48.114;11.532;2023-05-29T11:33:26;5.95;;;3.50;;
15679;SDS011;15488;48.114;11.532;2023-05-29T11:35:56;4.03;;;3.33;;
15679;SDS011;15488;48.114;11.532;2023-05-29T11:38:26;4.67;;;3.40;;
15679;SDS011;15488;48.114;11.532;2023-05-29T11:40:54;4.00;;;3.60;;
15679;SDS011;15488;48.114;11.532;2023-05-29T11:43:23;4.10;;;3.50;;
15679;SDS011;15488;48.114;11.532;2023-05-29T11:45:51;4.07;;;3.67;;
15679;SDS011;15488;48.114;11.532;2023-05-29T11:48:19;3.83;;;3.40;;
15679;SDS011;15488;48.114;11.532;2023-05-29T11:50:48;4.10;;;3.42;;
15679;SDS011;15488;48.114;11.532;2023-05-29T11:53:17;6.30;;;3.42;;
15679;SDS011;15488;48.114;11.532;2023-05-29T11:55:45;5.53;;;4.15;;
15679;SDS011;15488;48.114;11.532;2023-05-29T11:58:12;3.97;;;3.30;;
15679;SDS011;15488;48.114;11.532;2023-05-29T12:00:42;5.65;;;3.45;;
15679;SDS011;15488;48.114;11.532;2023-05-29T12:03:12;5.20;;;3.33;;
15679;SDS011;15488;48.114;11.532;2023-05-29T12:05:46;3.97;;;3.58;;
15679;SDS011;15488;48.114;11.532;2023-05-29T12:08:20;6.63;;;3.55;;
15679;SDS011;15488;48.114;11.532;2023-05-29T12:10:48;7.10;;;3.30;;
15679;SDS011;15488;48.114;11.532;2023-05-29T12:13:18;4.45;;;3.40;;
15679;SDS011;15488;48.114;11.532;2023-05-29T12:15:46;4.82;;;3.70;;
15679;SDS011;15488;48.114;11.532;2023-05-29T12:18:15;6.70;;;4.55;;
15679;SDS011;15488;48.114;11.532;2023-05-29T12:20:43;4.82;;;3.60;;
15679;SDS011;15488;48.114;11.532;2023-05-29T12:23:10;3.30;;;3.00;;
15679;SDS011;15488;48.114;11.532;2023-05-29T12:25:39;4.10;;;3.70;;
15679;SDS011;15488;48.114;11.532;2023-05-29T12:28:08;4.57;;;3.78;;
15679;SDS011;15488;48.114;11.532;2023-05-29T12:30:41;7.82;;;4.78;;
15679;SDS011;15488;48.114;11.532;2023-05-29T12:33:16;5.10;;;3.70;;
15679;SDS011;15488;48.114;11.532;2023-05-29T12:36:00;4.07;;;3.65;;
15679;SDS011;15488;48.114;11.532;2023-05-29T12:38:29;4.43;;;3.65;;
15679;SDS011;15488;48.114;11.532;2023-05-29T12:40:58;4.50;;;3.92;;
15679;SDS011;15488;48.114;11.532;2023-05-29T12:43:26;4.20;;;3.80;;
15679;SDS011;15488;48.114;11.532;2023-05-29T12:45:54;5.57;;;3.50;;
15679;SDS011;15488;48.114;11.532;2023-05-29T12:48:25;4.22;;;3.63;;
15679;SDS011;15488;48.114;11.532;2023-05-29T12:50:53;4.40;;;3.83;;
15679;SDS011;15488;48.114;11.532;2023-05-29T12:53:22;5.63;;;4.20;;
15679;SDS011;15488;48.114;11.532;2023-05-29T12:55:56;3.63;;;3.33;;
15679;SDS011;15488;48.114;11.532;2023-05-29T12:58:26;3.85;;;3.40;;
15679;SDS011;15488;48.114;11.532;2023-05-29T13:00:54;4.32;;;3.65;;
15679;SDS011;15488;48.114;11.532;2023-05-29T13:03:22;3.90;;;3.50;;
15679;SDS011;15488;48.114;11.532;2023-05-29T13:05:49;4.93;;;3.47;;
15679;SDS011;15488;48.114;11.532;2023-05-29T13:08:18;4.45;;;3.50;;
15679;SDS011;15488;48.114;11.532;2023-05-29T13:10:45;4.00;;;3.60;;
15679;SDS011;15488;48.114;11.532;2023-05-29T13:13:14;4.85;;;4.00;;
15679;SDS011;15488;48.114;11.532;2023-05-29T13:15:43;3.83;;;3.50;;
15679;SDS011;15488;48.114;11.532;2023-05-29T13:18:11;3.70;;;3.40;;
15679;SDS011;15488;48.114;11.532;2023-05-29T13:20:38;3.60;;;3.30;;
15679;SDS011;15488;48.114;11.532;2023-05-29T13:23:05;4.63;;;3.80;;
15679;SDS011;15488;48.114;11.532;2023-05-29T13:25:34;4.60;;;4.20;;
15679;SDS011;15488;48.114;11.532;2023-05-29T13:28:01;5.88;;;3.88;;
15679;SDS011;15488;48.114;11.532;2023-05-29T13:30:30;4.30;;;3.90;;
15679;SDS011;15488;48.114;11.532;2023-05-29T13:32:58;4.30;;;3.78;;
15679;SDS011;15488;48.114;11.532;2023-05-29T13:35:25;6.43;;;3.92;;
15679;SDS011;15488;48.114;11.532;2023-05-29T13:37:53;4.45;;;3.67;;
15679;SDS011;15488;48.114;11.532;2023-05-29T13:40:20;4.00;;;3.60;;
15679;SDS011;15488;48.114;11.532;2023-05-29T13:42:49;5.72;;;3.65;;
15679;SDS011;15488;48.114;11.532;2023-05-29T13:45:16;4.30;;;3.85;;
15679;SDS011;15488;48.114;11.532;2023-05-29T13:47:45;5.47;;;4.13;;
15679;SDS011;15488;48.114;11.532;2023-05-29T13:50:13;4.10;;;3.70;;
15679;SDS011;15488;48.114;11.532;2023-05-29T13:52:41;4.72;;;4.05;;
15679;SDS011;15488;48.114;11.532;2023-05-29T13:55:08;5.07;;;4.05;;
15679;SDS011;15488;48.114;11.532;2023-05-29T13:57:35;4.15;;;3.80;;
15679;SDS011;15488;48.114;11.532;2023-05-29T14:00:05;3.92;;;3.63;;
15679;SDS011;15488;48.114;11.532;2023-05-29T14:02:34;6.20;;;5.60;;
15679;SDS011;15488;48.114;11.532;2023-05-29T14:05:03;6.30;;;5.70;;
15679;SDS011;15488;48.114;11.532;2023-05-29T14:07:31;5.25;;;4.75;;
15679;SDS011;15488;48.114;11.532;2023-05-29T14:09:59;4.40;;;4.00;;
15679;SDS011;15488;48.114;11.532;2023-05-29T14:12:27;5.03;;;4.63;;
15679;SDS011;15488;48.114;11.532;2023-05-29T14:15:28;4.85;;;4.45;;
15679;SDS011;15488;48.114;11.532;2023-05-29T14:18:27;5.80;;;5.20;;
15679;SDS011;15488;48.114;11.532;2023-05-29T14:20:58;4.70;;;4.28;;
15679;SDS011;15488;48.114;11.532;2023-05-29T14:23:35;4.55;;;4.15;;
15679;SDS011;15488;48.114;11.532;2023-05-29T14:26:03;4.53;;;4.15;;
15679;SDS011;15488;48.114;11.532;2023-05-29T14:28:30;4.80;;;4.40;;
15679;SDS011;15488;48.114;11.532;2023-05-29T14:30:58;4.95;;;4.50;;
15679;SDS011;15488;48.114;11.532;2023-05-29T14:33:25;5.22;;;4.50;;
15679;SDS011;15488;48.114;11.532;2023-05-29T14:35:53;5.03;;;4.57;;
15679;SDS011;15488;48.114;11.532;2023-05-29T14:38:21;4.90;;;4.50;;
15679;SDS011;15488;48.114;11.532;2023-05-29T14:40:50;4.57;;;4.18;;
15679;SDS011;15488;48.114;11.532;2023-05-29T14:43:19;4.75;;;4.30;;
15679;SDS011;15488;48.114;11.532;2023-05-29T14:45:47;4.85;;;4.35;;
15679;SDS011;15488;48.114;11.532;2023-05-29T14:48:14;4.82;;;4.40;;
15679;SDS011;15488;48.114;11.532;2023-05-29T14:50:42;4.72;;;4.38;;
15679;SDS011;15488;48.114;11.532;2023-05-29T14:53:09;4.47;;;4.07;;
15679;SDS011;15488;48.114;11.532;2023-05-29T14:55:38;5.28;;;4.80;;
15679;SDS011;15488;48.114;11.532;2023-05-29T14:58:05;9.68;;;8.75;;
15679;SDS011;15488;48.114;11.532;2023-05-29T15:00:33;5.45;;;5.05;;